CheckWX is a tool to help pilots better visualize weather data.  It is not intended as a substitute for an official pre-flight weather briefing.

08:51:08 UTC

EETU METAR
Tartu Airport
Tartu, Estonia
Current

1 hour ago

EETU 220750Z AUTO VRB03KT 9999 NCD 22/15 Q1009
Observed
May-22 @ 07:50 UTC
Wind
  • Variable at 3 KTS
Visibility
10,000+ meters
Flight Rules
VFR
Cloud Levels
  • Clear skies
Temperature
22°C / 72°F
Dewpoint
15°C / 59°F
Humidity
65%
Altimeter
29.79" Hg
Pressure
1008.92 hPa
Previous

2 hours ago

EETU 220650Z VRB02KT CAVOK 21/14 Q1009
Observed
May-22 @ 06:50 UTC
Wind
  • Variable at 2 KTS
Visibility
10,000+ meters
Flight Rules
VFR
Cloud Levels
  • Clear skies
Temperature
21°C / 70°F
Dewpoint
14°C / 57°F
Humidity
64%
Altimeter
29.79" Hg
Pressure
1008.92 hPa
Previous

3 hours ago

EETU 220550Z VRB03KT CAVOK 20/14 Q1009
Observed
May-22 @ 05:50 UTC
Wind
  • Variable at 3 KTS
Visibility
10,000+ meters
Flight Rules
VFR
Cloud Levels
  • Clear skies
Temperature
20°C / 68°F
Dewpoint
14°C / 57°F
Humidity
69%
Altimeter
29.79" Hg
Pressure
1008.92 hPa